createdAt,value
2019-05-30T00:00:05.838Z,11.59
2019-05-30T00:02:23.719Z,11.56
2019-05-30T00:04:56.111Z,11.35
2019-05-30T00:07:28.075Z,11.28
2019-05-30T00:10:00.592Z,11.11
2019-05-30T00:12:32.492Z,11.18
2019-05-30T00:15:06.448Z,11.36
2019-05-30T00:17:38.556Z,11.31
2019-05-30T00:20:10.774Z,11.20
2019-05-30T00:22:42.846Z,11.13
2019-05-30T00:25:14.912Z,11.17
2019-05-30T00:27:46.779Z,10.99
2019-05-30T00:30:24.473Z,11.05
2019-05-30T00:32:52.325Z,10.91
2019-05-30T00:35:24.223Z,10.82
2019-05-30T00:37:56.115Z,10.88
2019-05-30T00:40:28.002Z,10.96
2019-05-30T00:43:00.075Z,10.84
2019-05-30T00:45:31.997Z,10.90
2019-05-30T00:48:04.487Z,10.92
2019-05-30T00:50:36.283Z,10.87
2019-05-30T00:53:08.349Z,10.83
2019-05-30T00:55:40.382Z,10.84
2019-05-30T00:58:12.256Z,10.85
2019-05-30T01:00:44.489Z,10.79
2019-05-30T01:03:16.376Z,10.76
2019-05-30T01:05:48.230Z,10.73
2019-05-30T01:08:20.022Z,10.60
2019-05-30T01:10:51.891Z,10.67
2019-05-30T01:13:23.681Z,10.68
2019-05-30T01:15:56.837Z,10.53
2019-05-30T01:18:28.817Z,10.45
2019-05-30T01:21:01.320Z,10.26
2019-05-30T01:23:34.272Z,10.24
2019-05-30T01:26:06.064Z,10.16
2019-05-30T01:28:37.951Z,9.99
2019-05-30T01:31:11.543Z,9.99
2019-05-30T01:33:43.404Z,9.93
2019-05-30T01:36:15.213Z,9.94
2019-05-30T01:38:47.076Z,9.89
2019-05-30T01:41:19.257Z,9.91
2019-05-30T01:43:51.140Z,9.97
2019-05-30T01:46:22.951Z,9.99
2019-05-30T01:48:54.816Z,10.08
2019-05-30T01:51:26.611Z,10.08
2019-05-30T01:53:58.439Z,10.07
2019-05-30T01:56:30.241Z,10.15
2019-05-30T01:59:02.662Z,10.01
2019-05-30T02:01:34.615Z,10.01
2019-05-30T02:04:07.404Z,9.99
2019-05-30T02:06:39.363Z,9.89
2019-05-30T02:09:11.764Z,9.93
2019-05-30T02:11:43.733Z,9.73
2019-05-30T02:14:15.581Z,9.72
2019-05-30T02:16:47.365Z,9.74
2019-05-30T02:19:20.351Z,9.54
2019-05-30T02:21:52.130Z,9.44
2019-05-30T02:24:24.026Z,9.39
2019-05-30T02:26:55.880Z,9.22
2019-05-30T02:29:27.759Z,8.97
2019-05-30T02:32:00.953Z,9.10
2019-05-30T02:34:33.109Z,9.18
2019-05-30T02:37:06.116Z,9.14
2019-05-30T02:39:38.766Z,9.28
2019-05-30T02:42:11.681Z,9.22
2019-05-30T02:44:43.673Z,9.28
2019-05-30T02:47:15.480Z,9.26
2019-05-30T02:49:48.399Z,9.26
2019-05-30T02:52:20.284Z,9.32
2019-05-30T02:54:52.149Z,9.24
2019-05-30T02:57:24.026Z,9.12
2019-05-30T02:59:55.847Z,9.10
2019-05-30T03:02:27.623Z,9.06
2019-05-30T03:04:59.472Z,9.11
2019-05-30T03:07:31.481Z,9.20
2019-05-30T03:10:05.099Z,9.10
2019-05-30T03:12:37.177Z,9.03
2019-05-30T03:15:12.211Z,9.12
2019-05-30T03:17:42.740Z,9.07
2019-05-30T03:20:22.561Z,9.07
2019-05-30T03:22:49.274Z,9.13
2019-05-30T03:25:21.166Z,9.12
2019-05-30T03:27:53.031Z,9.15
2019-05-30T03:30:27.984Z,9.08
2019-05-30T03:33:07.322Z,9.16
2019-05-30T03:35:40.983Z,9.24
2019-05-30T03:38:07.770Z,9.26
2019-05-30T03:40:39.204Z,9.22
2019-05-30T03:43:11.732Z,9.18
2019-05-30T03:45:45.392Z,9.16
2019-05-30T03:48:18.598Z,9.23
2019-05-30T03:50:52.589Z,9.27
2019-05-30T03:53:24.646Z,9.26
2019-05-30T03:56:02.286Z,9.27
2019-05-30T03:58:45.100Z,9.24
2019-05-30T04:01:22.505Z,9.26
2019-05-30T04:04:01.187Z,9.33
2019-05-30T04:06:37.191Z,9.42
2019-05-30T04:09:12.396Z,9.60
2019-05-30T04:12:10.629Z,9.74
2019-05-30T04:14:43.776Z,9.73
2019-05-30T04:17:17.664Z,9.83
2019-05-30T04:19:49.202Z,9.95
2019-05-30T04:22:21.109Z,10.05
2019-05-30T04:24:52.967Z,10.13
2019-05-30T04:27:24.774Z,10.22
2019-05-30T04:29:56.595Z,10.30
2019-05-30T04:32:28.423Z,10.35
2019-05-30T04:35:00.228Z,10.49
2019-05-30T04:37:32.365Z,10.57
2019-05-30T04:40:04.259Z,10.66
2019-05-30T04:42:36.446Z,10.77
2019-05-30T04:45:09.638Z,10.90
2019-05-30T04:47:41.888Z,10.95
2019-05-30T04:50:14.405Z,11.05
2019-05-30T04:52:46.689Z,11.07
2019-05-30T04:55:22.323Z,11.16
2019-05-30T04:57:52.212Z,11.32
2019-05-30T05:00:24.004Z,11.50
2019-05-30T05:02:56.376Z,11.59
2019-05-30T05:05:28.183Z,11.68
2019-05-30T05:08:00.002Z,11.67
2019-05-30T05:10:31.781Z,11.66
2019-05-30T05:13:03.694Z,11.71
2019-05-30T05:15:35.510Z,11.77
2019-05-30T05:18:07.669Z,11.79
2019-05-30T05:20:39.475Z,11.95
2019-05-30T05:23:11.328Z,11.99
2019-05-30T05:25:43.188Z,12.06
2019-05-30T05:28:15.750Z,12.12
2019-05-30T05:30:48.294Z,12.24
2019-05-30T05:33:20.549Z,12.35
2019-05-30T05:35:53.542Z,12.33
2019-05-30T05:38:25.407Z,12.39
2019-05-30T05:40:57.209Z,12.53
2019-05-30T05:43:29.014Z,12.61
2019-05-30T05:46:00.810Z,12.69
2019-05-30T05:48:32.681Z,12.71
2019-05-30T05:51:04.722Z,12.72
2019-05-30T05:53:36.676Z,12.73
2019-05-30T05:56:08.469Z,12.77
2019-05-30T05:58:40.350Z,12.95
2019-05-30T06:01:12.230Z,13.07
2019-05-30T06:03:44.229Z,13.17
2019-05-30T06:06:17.155Z,13.08
2019-05-30T06:08:49.133Z,13.14
2019-05-30T06:11:21.014Z,13.13
2019-05-30T06:13:52.810Z,13.31
2019-05-30T06:16:24.673Z,13.39
2019-05-30T06:18:56.480Z,13.38
2019-05-30T06:21:28.295Z,13.51
2019-05-30T06:24:01.151Z,13.62
2019-05-30T06:26:33.024Z,13.67
2019-05-30T06:29:04.926Z,13.62
2019-05-30T06:31:36.784Z,13.70
2019-05-30T06:34:08.570Z,13.72
2019-05-30T06:36:40.373Z,13.77
2019-05-30T06:39:12.187Z,13.81
2019-05-30T06:42:15.295Z,13.78
2019-05-30T06:44:52.642Z,13.85
2019-05-30T06:47:24.535Z,13.98
2019-05-30T06:49:56.346Z,14.15
2019-05-30T06:52:29.158Z,14.22
2019-05-30T06:55:01.089Z,14.24
2019-05-30T06:57:34.099Z,14.19
2019-05-30T07:00:07.245Z,14.27
2019-05-30T07:02:39.206Z,14.35
2019-05-30T07:05:11.918Z,14.41
2019-05-30T07:07:45.529Z,14.40
2019-05-30T07:10:17.732Z,14.55
2019-05-30T07:12:49.639Z,14.63
2019-05-30T07:15:21.605Z,14.62
2019-05-30T07:17:53.475Z,14.61
2019-05-30T07:20:25.593Z,14.71
2019-05-30T07:22:57.521Z,14.91
2019-05-30T07:25:29.967Z,15.00
2019-05-30T07:28:01.789Z,15.15
2019-05-30T07:30:34.231Z,15.33
2019-05-30T07:33:06.173Z,15.10
2019-05-30T07:35:38.330Z,15.18
2019-05-30T07:38:10.379Z,15.35
2019-05-30T07:40:42.226Z,15.57
2019-05-30T07:43:14.100Z,15.58
2019-05-30T07:45:57.397Z,15.53
2019-05-30T07:48:19.483Z,15.67
2019-05-30T07:50:52.102Z,15.51
2019-05-30T07:53:24.507Z,15.46
2019-05-30T07:55:56.357Z,15.48
2019-05-30T07:58:29.082Z,15.66
2019-05-30T08:01:00.870Z,15.68
2019-05-30T08:03:34.699Z,15.85
2019-05-30T08:06:07.219Z,16.00
2019-05-30T08:08:39.008Z,15.95
2019-05-30T08:11:12.066Z,15.99
2019-05-30T08:13:43.940Z,16.01
2019-05-30T08:16:15.758Z,16.03
2019-05-30T08:18:47.702Z,16.17
2019-05-30T08:21:19.501Z,16.09
2019-05-30T08:23:51.374Z,15.99
2019-05-30T08:26:23.168Z,16.21
2019-05-30T08:28:56.013Z,16.21
2019-05-30T08:31:28.583Z,16.39
2019-05-30T08:34:00.557Z,16.51
2019-05-30T08:36:32.831Z,16.61
2019-05-30T08:39:06.575Z,16.37
2019-05-30T08:41:39.474Z,16.41
2019-05-30T08:44:11.410Z,16.52
2019-05-30T08:46:43.212Z,16.68
2019-05-30T08:49:14.996Z,16.65
2019-05-30T08:51:46.805Z,16.67
2019-05-30T08:54:18.693Z,16.66
2019-05-30T08:56:50.512Z,16.79
2019-05-30T08:59:22.368Z,16.88
2019-05-30T09:01:54.186Z,17.02
2019-05-30T09:04:26.164Z,17.11
2019-05-30T09:06:58.028Z,16.93
2019-05-30T09:09:29.907Z,17.07
2019-05-30T09:12:01.860Z,17.02
2019-05-30T09:14:33.785Z,16.94
2019-05-30T09:17:05.687Z,17.04
2019-05-30T09:19:38.452Z,17.27
2019-05-30T09:22:11.637Z,17.38
2019-05-30T09:24:44.055Z,17.47
2019-05-30T09:27:15.952Z,17.55
2019-05-30T09:29:48.272Z,17.48
2019-05-30T09:32:20.210Z,17.76
2019-05-30T09:34:52.974Z,17.88
2019-05-30T09:37:24.840Z,18.00
2019-05-30T09:39:56.623Z,17.77
2019-05-30T09:42:28.472Z,17.81
2019-05-30T09:45:01.345Z,18.03
2019-05-30T09:47:33.293Z,17.91
2019-05-30T09:50:05.975Z,18.04
2019-05-30T09:52:37.778Z,18.50
2019-05-30T09:55:09.925Z,18.66
2019-05-30T09:57:43.039Z,18.85
2019-05-30T10:00:17.487Z,19.04
2019-05-30T10:02:50.497Z,18.91
2019-05-30T10:05:24.661Z,18.91
2019-05-30T10:07:56.828Z,19.26
2019-05-30T10:10:28.889Z,19.64
2019-05-30T10:13:00.762Z,20.18
2019-05-30T10:15:32.710Z,19.71
2019-05-30T10:18:04.900Z,19.80
2019-05-30T10:20:36.781Z,19.79
2019-05-30T10:23:08.663Z,19.66
2019-05-30T10:25:40.575Z,19.60
2019-05-30T10:28:12.467Z,19.83
2019-05-30T10:30:50.939Z,20.20
2019-05-30T10:33:18.985Z,20.41
2019-05-30T10:35:51.651Z,20.80
2019-05-30T10:38:24.084Z,20.71
2019-05-30T10:40:56.096Z,20.88
2019-05-30T10:43:28.048Z,21.32
2019-05-30T10:45:59.926Z,21.14
2019-05-30T10:48:31.789Z,21.34
2019-05-30T10:51:03.745Z,21.55
2019-05-30T10:53:37.633Z,21.78
2019-05-30T10:56:09.184Z,21.90
2019-05-30T10:58:40.986Z,21.69
2019-05-30T11:01:12.943Z,21.60
2019-05-30T11:03:45.832Z,22.08
2019-05-30T11:06:30.470Z,21.53
2019-05-30T11:09:04.724Z,21.52
2019-05-30T11:11:37.249Z,22.00
2019-05-30T11:14:09.033Z,22.16
2019-05-30T11:16:41.027Z,22.70
2019-05-30T11:19:12.882Z,23.03
2019-05-30T11:21:44.671Z,23.41
2019-05-30T11:24:16.454Z,23.47
2019-05-30T11:26:50.443Z,23.17
2019-05-30T11:29:21.754Z,22.78
2019-05-30T11:31:54.888Z,23.05
2019-05-30T11:34:26.946Z,22.55
2019-05-30T11:36:59.327Z,22.20
2019-05-30T11:39:32.395Z,22.78
2019-05-30T11:42:04.273Z,22.63
2019-05-30T11:44:36.116Z,23.21
2019-05-30T11:47:08.088Z,22.70
2019-05-30T11:49:40.060Z,22.31
2019-05-30T11:52:13.492Z,22.61
2019-05-30T11:54:45.372Z,23.16
2019-05-30T11:57:17.145Z,22.93
2019-05-30T11:59:50.076Z,23.22
2019-05-30T12:02:22.037Z,23.88
2019-05-30T12:04:54.526Z,23.74
2019-05-30T12:07:35.913Z,23.55
2019-05-30T12:10:01.092Z,23.29
2019-05-30T12:12:33.158Z,23.10
2019-05-30T12:15:05.484Z,23.57
2019-05-30T12:17:37.431Z,23.58
2019-05-30T12:20:09.715Z,23.87
2019-05-30T12:22:41.724Z,24.61
2019-05-30T12:25:13.696Z,25.56
2019-05-30T12:27:45.570Z,25.91
2019-05-30T12:30:17.724Z,24.66
2019-05-30T12:32:52.242Z,25.26
2019-05-30T12:35:24.432Z,24.99
2019-05-30T12:38:01.592Z,25.25
2019-05-30T12:40:29.892Z,24.63
2019-05-30T12:43:03.708Z,25.06
2019-05-30T12:45:36.440Z,25.24
2019-05-30T12:48:08.444Z,25.27
2019-05-30T12:50:40.513Z,24.59
2019-05-30T12:53:12.393Z,24.24
2019-05-30T12:55:44.370Z,23.37
2019-05-30T12:58:16.251Z,23.27
2019-05-30T13:00:48.160Z,22.97
2019-05-30T13:03:20.035Z,23.20
2019-05-30T13:05:51.902Z,23.44
2019-05-30T13:08:23.701Z,23.18
2019-05-30T13:10:55.651Z,23.33
2019-05-30T13:13:27.501Z,23.72
2019-05-30T13:16:01.061Z,23.99
2019-05-30T13:18:34.512Z,24.08
2019-05-30T13:21:06.523Z,24.18
2019-05-30T13:23:39.395Z,24.17
2019-05-30T13:26:11.277Z,23.92
2019-05-30T13:28:44.591Z,23.49
2019-05-30T13:31:19.829Z,23.46
2019-05-30T13:33:52.112Z,23.80
2019-05-30T13:36:23.976Z,24.22
2019-05-30T13:38:57.035Z,24.06
2019-05-30T13:41:31.923Z,23.55
2019-05-30T13:44:06.832Z,23.37
2019-05-30T13:46:38.604Z,23.93
2019-05-30T13:49:10.906Z,24.45
2019-05-30T13:51:43.131Z,25.19
2019-05-30T13:54:15.121Z,25.91
2019-05-30T13:56:47.001Z,25.88
2019-05-30T13:59:19.800Z,24.87
2019-05-30T14:01:52.959Z,25.05
2019-05-30T14:04:25.443Z,25.75
2019-05-30T14:06:57.318Z,25.95
2019-05-30T14:09:30.385Z,26.37
2019-05-30T14:12:02.463Z,26.38
2019-05-30T14:14:34.685Z,26.73
2019-05-30T14:17:10.405Z,26.74
2019-05-30T14:19:41.575Z,26.96
2019-05-30T14:22:13.504Z,27.96
2019-05-30T14:24:45.283Z,28.57
2019-05-30T14:27:17.054Z,28.72
2019-05-30T14:29:48.843Z,29.13
2019-05-30T14:32:20.710Z,29.73
2019-05-30T14:34:52.558Z,29.38
2019-05-30T14:37:24.429Z,28.14
2019-05-30T14:39:56.215Z,28.44
2019-05-30T14:42:28.000Z,28.55
2019-05-30T14:44:59.784Z,29.52
2019-05-30T14:47:33.694Z,30.37
2019-05-30T14:50:08.981Z,31.11
2019-05-30T14:52:41.060Z,30.61
2019-05-30T14:55:13.416Z,30.80
2019-05-30T14:57:46.607Z,31.16
2019-05-30T15:00:19.268Z,31.29
2019-05-30T15:02:51.213Z,31.11
2019-05-30T15:05:23.166Z,31.42
2019-05-30T15:07:55.090Z,31.55
2019-05-30T15:10:26.890Z,30.78
2019-05-30T15:12:58.781Z,32.07
2019-05-30T15:15:30.599Z,33.38
2019-05-30T15:18:02.467Z,34.10
2019-05-30T15:20:34.416Z,34.55
2019-05-30T15:23:07.636Z,34.78
2019-05-30T15:25:39.594Z,35.29
2019-05-30T15:28:12.227Z,34.33
2019-05-30T15:30:44.191Z,33.10
2019-05-30T15:33:16.601Z,33.57
2019-05-30T15:35:49.478Z,34.13
2019-05-30T15:38:21.262Z,34.34
2019-05-30T15:40:53.066Z,34.71
2019-05-30T15:43:24.947Z,34.13
2019-05-30T15:45:56.812Z,33.16
2019-05-30T15:48:28.622Z,31.78
2019-05-30T15:51:00.500Z,30.49
2019-05-30T15:53:32.367Z,30.20
2019-05-30T15:56:04.489Z,30.32
2019-05-30T15:58:37.586Z,30.42
2019-05-30T16:01:09.842Z,30.98
2019-05-30T16:03:41.734Z,32.37
2019-05-30T16:06:14.463Z,33.93
2019-05-30T16:08:46.349Z,34.52
2019-05-30T16:11:19.109Z,34.25
2019-05-30T16:13:50.990Z,34.94
2019-05-30T16:16:38.794Z,34.88
2019-05-30T16:18:56.462Z,35.15
2019-05-30T16:21:28.335Z,34.63
2019-05-30T16:24:00.184Z,33.56
2019-05-30T16:26:32.072Z,32.45
2019-05-30T16:29:04.096Z,31.03
2019-05-30T16:31:35.950Z,30.04
2019-05-30T16:34:08.098Z,29.20
2019-05-30T16:36:40.514Z,28.25
2019-05-30T16:39:12.357Z,27.68
2019-05-30T16:41:44.222Z,26.41
2019-05-30T16:44:16.250Z,25.80
2019-05-30T16:46:48.113Z,27.07
2019-05-30T16:49:21.094Z,27.77
2019-05-30T16:51:52.942Z,27.66
2019-05-30T16:54:24.744Z,26.67
2019-05-30T16:56:56.606Z,26.17
2019-05-30T16:59:28.497Z,25.91
2019-05-30T17:02:00.291Z,25.43
2019-05-30T17:04:32.158Z,24.63
2019-05-30T17:07:04.082Z,24.48
2019-05-30T17:09:35.946Z,24.50
2019-05-30T17:12:08.085Z,24.28
2019-05-30T17:14:39.963Z,24.14
2019-05-30T17:17:11.832Z,24.13
2019-05-30T17:19:43.692Z,24.08
2019-05-30T17:22:16.602Z,24.05
2019-05-30T17:24:48.525Z,24.01
2019-05-30T17:27:20.321Z,23.69
2019-05-30T17:29:52.177Z,23.33
2019-05-30T17:32:23.980Z,22.98
2019-05-30T17:34:55.838Z,22.94
2019-05-30T17:37:28.520Z,22.93
2019-05-30T17:40:00.411Z,22.99
2019-05-30T17:42:32.275Z,23.06
2019-05-30T17:45:05.039Z,22.98
2019-05-30T17:47:37.501Z,22.91
2019-05-30T17:50:09.783Z,22.77
2019-05-30T17:52:41.728Z,22.64
2019-05-30T17:55:13.587Z,22.77
2019-05-30T17:57:45.461Z,22.66
2019-05-30T18:00:17.748Z,22.65
2019-05-30T18:02:50.536Z,23.18
2019-05-30T18:05:24.477Z,23.01
2019-05-30T18:07:56.461Z,22.69
2019-05-30T18:10:29.035Z,22.72
2019-05-30T18:13:00.983Z,22.53
2019-05-30T18:15:32.908Z,22.47
2019-05-30T18:18:05.692Z,22.47
2019-05-30T18:20:47.656Z,22.23
2019-05-30T18:23:11.968Z,22.16
2019-05-30T18:25:43.823Z,22.07
2019-05-30T18:28:15.719Z,22.08
2019-05-30T18:30:47.588Z,21.92
2019-05-30T18:33:19.409Z,22.09
2019-05-30T18:35:51.296Z,21.93
2019-05-30T18:38:24.253Z,21.68
2019-05-30T18:41:10.165Z,21.58
2019-05-30T18:43:30.837Z,21.45
2019-05-30T18:46:02.835Z,21.40
2019-05-30T18:48:34.713Z,21.32
2019-05-30T18:51:06.523Z,21.23
2019-05-30T18:53:38.728Z,21.08
2019-05-30T18:56:10.746Z,21.01
2019-05-30T18:58:42.741Z,21.01
2019-05-30T19:01:14.834Z,20.87
2019-05-30T19:03:47.142Z,20.60
2019-05-30T19:06:18.938Z,20.47
2019-05-30T19:08:50.822Z,20.31
2019-05-30T19:11:28.113Z,20.26
2019-05-30T19:13:56.668Z,20.11
2019-05-30T19:16:28.575Z,20.01
2019-05-30T19:19:00.481Z,20.01
2019-05-30T19:21:34.056Z,19.97
2019-05-30T19:24:06.243Z,19.89
2019-05-30T19:26:38.289Z,19.69
2019-05-30T19:29:10.209Z,19.57
2019-05-30T19:31:42.124Z,19.52
2019-05-30T19:34:14.101Z,19.36
2019-05-30T19:36:46.093Z,19.26
2019-05-30T19:39:17.989Z,19.22
2019-05-30T19:41:56.766Z,19.12
2019-05-30T19:44:23.509Z,19.02
2019-05-30T19:46:55.369Z,18.91
2019-05-30T19:49:28.293Z,18.82
2019-05-30T19:52:00.376Z,18.74
2019-05-30T19:54:33.104Z,18.63
2019-05-30T19:57:06.070Z,18.65
2019-05-30T19:59:39.875Z,18.59
2019-05-30T20:02:12.349Z,18.51
2019-05-30T20:04:44.227Z,18.42
2019-05-30T20:07:16.185Z,18.25
2019-05-30T20:10:00.477Z,18.26
2019-05-30T20:12:21.607Z,18.18
2019-05-30T20:14:53.584Z,18.08
2019-05-30T20:17:30.020Z,18.02
2019-05-30T20:20:01.350Z,17.95
2019-05-30T20:22:33.944Z,17.92
2019-05-30T20:25:08.327Z,17.86
2019-05-30T20:27:40.877Z,17.77
2019-05-30T20:30:13.183Z,17.76
2019-05-30T20:32:45.060Z,17.69
2019-05-30T20:35:16.975Z,17.63
2019-05-30T20:37:48.871Z,17.55
2019-05-30T20:40:20.832Z,17.51
2019-05-30T20:42:52.700Z,17.36
2019-05-30T20:45:24.595Z,17.32
2019-05-30T20:47:56.470Z,17.24
2019-05-30T20:50:28.432Z,17.16
2019-05-30T20:53:00.286Z,16.97
2019-05-30T20:55:32.198Z,16.92
2019-05-30T20:58:05.087Z,16.91
2019-05-30T21:00:39.820Z,16.83
2019-05-30T21:03:11.971Z,16.87
2019-05-30T21:05:45.963Z,16.78
2019-05-30T21:08:17.912Z,16.76
2019-05-30T21:10:50.683Z,16.69
2019-05-30T21:13:22.551Z,16.52
2019-05-30T21:15:55.252Z,16.49
2019-05-30T21:18:28.824Z,16.38
2019-05-30T21:21:00.709Z,16.38
2019-05-30T21:23:32.576Z,16.40
2019-05-30T21:26:04.527Z,16.41
2019-05-30T21:28:36.657Z,16.36
2019-05-30T21:31:08.454Z,16.34
2019-05-30T21:33:41.612Z,16.37
2019-05-30T21:36:13.831Z,16.35
2019-05-30T21:38:46.081Z,16.33
2019-05-30T21:41:17.910Z,16.28
2019-05-30T21:43:49.703Z,16.28
2019-05-30T21:46:21.715Z,16.19
2019-05-30T21:48:53.510Z,16.06
2019-05-30T21:51:25.415Z,16.04
2019-05-30T21:53:57.246Z,15.90
2019-05-30T21:56:29.216Z,15.88
2019-05-30T21:59:01.080Z,15.81
2019-05-30T22:01:34.921Z,15.81
2019-05-30T22:04:07.299Z,15.81
2019-05-30T22:06:39.166Z,15.79
2019-05-30T22:09:11.477Z,15.69
2019-05-30T22:11:43.676Z,15.75
2019-05-30T22:14:15.580Z,15.74
2019-05-30T22:16:47.914Z,15.71
2019-05-30T22:19:19.891Z,15.71
2019-05-30T22:21:52.323Z,15.68
2019-05-30T22:24:24.306Z,15.65
2019-05-30T22:26:56.172Z,15.65
2019-05-30T22:29:28.038Z,15.59
2019-05-30T22:32:00.114Z,15.59
2019-05-30T22:34:31.988Z,15.58
2019-05-30T22:37:03.821Z,15.51
2019-05-30T22:39:35.704Z,15.55
2019-05-30T22:42:07.905Z,15.54
2019-05-30T22:44:39.759Z,15.54
2019-05-30T22:47:11.541Z,15.48
2019-05-30T22:49:44.533Z,15.36
2019-05-30T22:52:16.499Z,15.23
2019-05-30T22:54:49.088Z,15.25
2019-05-30T22:57:20.976Z,15.24
2019-05-30T22:59:53.093Z,15.23
2019-05-30T23:02:25.002Z,15.12
2019-05-30T23:04:56.878Z,15.13
2019-05-30T23:07:28.847Z,15.13
2019-05-30T23:10:00.702Z,15.01
2019-05-30T23:12:32.770Z,15.01
2019-05-30T23:15:04.956Z,14.91
2019-05-30T23:17:36.820Z,14.92
2019-05-30T23:20:09.167Z,14.88
2019-05-30T23:22:41.440Z,14.88
2019-05-30T23:25:13.302Z,14.92
2019-05-30T23:27:45.173Z,14.87
2019-05-30T23:30:17.233Z,14.87
2019-05-30T23:32:50.447Z,14.89
2019-05-30T23:35:22.379Z,14.81
2019-05-30T23:37:54.725Z,14.83
2019-05-30T23:40:26.662Z,14.78
2019-05-30T23:42:59.247Z,14.76
2019-05-30T23:45:31.150Z,14.59
2019-05-30T23:48:03.106Z,14.52
2019-05-30T23:50:34.971Z,14.57
2019-05-30T23:53:06.845Z,14.60
2019-05-30T23:55:38.716Z,14.58
2019-05-30T23:58:10.518Z,14.51
